Time;durP1;ratioP1;P1;durP2;ratioP2;P2;SDS_P1;SDS_P2;PMS_P1;PMS_P2;Temp;Humidity;BMP_temperature;BMP_pressure;BME280_temperature;BME280_humidity;BME280_pressure;Samples;Min_cycle;Max_cycle;Signal;HPM_P1;HPM_P2
2022/01/01 00:00:28;;;;;;;18.88;6.25;;;;;;;14.56;100.00;101922.88;5040659;28;20055;-71
2022/01/01 00:02:56;;;;;;;32.10;13.98;;;;;;;14.58;100.00;101926.03;5039796;28;20140;-71
2022/01/01 00:05:23;;;;;;;28.08;12.10;;;;;;;14.47;100.00;101933.59;5033992;28;20086;-71
2022/01/01 00:07:49;;;;;;;31.67;13.48;;;;;;;14.57;100.00;101923.66;5044796;28;20063;-71
2022/01/01 00:10:17;;;;;;;16.10;5.90;;;;;;;14.55;100.00;101926.81;5033859;28;20589;-71
2022/01/01 00:12:43;;;;;;;25.85;11.35;;;;;;;14.47;100.00;101947.50;5037937;28;20494;-70
2022/01/01 00:15:10;;;;;;;14.95;6.78;;;;;;;14.53;100.00;101948.72;5035302;28;20137;-71
2022/01/01 00:17:36;;;;;;;32.90;15.85;;;;;;;14.51;100.00;101941.97;5037296;28;20049;-71
2022/01/01 00:20:04;;;;;;;20.48;10.15;;;;;;;14.49;100.00;101950.72;5030156;28;20137;-73
2022/01/01 00:22:30;;;;;;;29.65;10.52;;;;;;;14.45;100.00;101941.53;5029362;28;20057;-71
2022/01/01 00:24:57;;;;;;;30.00;12.07;;;;;;;14.46;100.00;101937.56;5033531;28;20481;-70
2022/01/01 00:27:23;;;;;;;31.90;16.30;;;;;;;14.57;100.00;101938.38;5040550;28;20124;-71
2022/01/01 00:29:50;;;;;;;26.33;10.40;;;;;;;14.44;100.00;101939.94;5029786;28;20081;-73
2022/01/01 00:32:16;;;;;;;20.20;8.07;;;;;;;14.40;100.00;101944.72;5035125;28;20151;-70
2022/01/01 00:34:43;;;;;;;33.35;13.02;;;;;;;14.49;100.00;101945.13;5039032;28;20048;-70
2022/01/01 00:37:09;;;;;;;25.67;9.90;;;;;;;14.35;100.00;101947.84;5032633;28;20491;-71
2022/01/01 00:39:36;;;;;;;23.17;8.25;;;;;;;14.44;100.00;101941.91;5030449;28;20119;-72
2022/01/01 00:42:03;;;;;;;22.73;9.07;;;;;;;14.36;100.00;101934.75;5030134;28;20147;-73
2022/01/01 00:44:32;;;;;;;14.43;6.90;;;;;;;14.39;100.00;101940.34;5030093;28;20098;-71
2022/01/01 00:47:00;;;;;;;25.48;10.82;;;;;;;14.43;100.00;101931.97;5033729;28;20136;-70
2022/01/01 00:49:26;;;;;;;12.90;5.13;;;;;;;14.32;100.00;101929.19;5030537;28;20053;-71
2022/01/01 00:51:53;;;;;;;23.73;8.75;;;;;;;14.40;100.00;101935.56;5028604;28;20758;-71
2022/01/01 00:54:19;;;;;;;20.42;8.23;;;;;;;14.40;100.00;101941.94;5033205;28;20051;-71
2022/01/01 00:56:46;;;;;;;27.30;10.93;;;;;;;14.34;100.00;101935.13;5041478;28;20642;-72
2022/01/01 00:59:15;;;;;;;12.65;5.05;;;;;;;14.35;100.00;101942.28;5037652;28;20059;-71
2022/01/01 01:01:42;;;;;;;25.20;10.73;;;;;;;14.36;100.00;101946.69;5037961;28;20053;-71
2022/01/01 01:04:09;;;;;;;20.23;6.63;;;;;;;14.34;100.00;101957.41;5039101;28;20080;-72
2022/01/01 01:06:35;;;;;;;19.23;7.47;;;;;;;14.31;100.00;101957.41;5036651;28;20045;-71
2022/01/01 01:09:02;;;;;;;14.23;4.60;;;;;;;14.33;100.00;101968.94;5037375;28;20140;-72
2022/01/01 01:11:29;;;;;;;11.30;4.03;;;;;;;14.32;100.00;101967.34;5035269;28;20560;-71
2022/01/01 01:13:59;;;;;;;25.48;8.68;;;;;;;14.34;100.00;101962.97;5036460;28;20049;-71
2022/01/01 01:16:27;;;;;;;28.45;10.93;;;;;;;14.39;100.00;101970.97;5034771;28;20061;-72
2022/01/01 01:18:54;;;;;;;29.92;10.10;;;;;;;14.35;100.00;101959.00;5040971;28;20053;-70
2022/01/01 01:21:23;;;;;;;29.52;13.35;;;;;;;14.40;100.00;101966.19;5034030;28;20055;-71
2022/01/01 01:23:50;;;;;;;15.80;6.50;;;;;;;14.33;100.00;101961.41;5030315;28;20057;-71
2022/01/01 01:26:17;;;;;;;25.92;9.95;;;;;;;14.26;100.00;101968.91;5028286;28;20053;-71
2022/01/01 01:28:49;;;;;;;29.95;12.55;;;;;;;14.40;100.00;101955.84;5039579;28;20079;-72
2022/01/01 01:31:17;;;;;;;16.17;7.10;;;;;;;14.32;100.00;101964.56;5029225;28;20458;-73
2022/01/01 01:33:44;;;;;;;11.88;4.90;;;;;;;14.32;100.00;101962.59;5035183;28;20071;-72
2022/01/01 01:36:12;;;;;;;9.07;2.75;;;;;;;14.34;100.00;101974.13;5036967;28;20064;-71
2022/01/01 01:38:38;;;;;;;24.52;10.35;;;;;;;14.36;100.00;101971.75;5029662;28;20051;-71
2022/01/01 01:41:07;;;;;;;23.45;9.65;;;;;;;14.41;100.00;101974.13;5033643;28;20145;-72
2022/01/01 01:43:34;;;;;;;20.80;7.78;;;;;;;14.35;100.00;101961.00;5020541;28;20050;-71
2022/01/01 01:46:05;;;;;;;24.67;7.00;;;;;;;14.38;100.00;101972.13;5037639;28;20424;-71
2022/01/01 01:48:34;;;;;;;18.17;7.53;;;;;;;14.35;100.00;101975.72;5044739;28;20041;-73
2022/01/01 01:51:02;;;;;;;27.30;8.77;;;;;;;14.36;100.00;101968.97;5036219;28;20053;-71
2022/01/01 01:53:29;;;;;;;26.80;8.13;;;;;;;14.39;100.00;101964.59;5032953;28;20541;-72
2022/01/01 01:55:58;;;;;;;27.25;8.90;;;;;;;14.31;100.00;101960.22;5036186;28;20152;-72
2022/01/01 01:58:25;;;;;;;14.13;3.90;;;;;;;14.40;100.00;101972.56;5034624;28;20132;-71
2022/01/01 02:03:21;;;;;;;24.13;9.75;;;;;;;14.43;100.00;101966.19;5033083;28;20041;-72
2022/01/01 02:05:47;;;;;;;12.13;4.47;;;;;;;14.35;100.00;101972.91;5035056;28;20049;-75
2022/01/01 02:08:14;;;;;;;11.05;5.07;;;;;;;14.35;100.00;101989.63;5040275;28;20041;-73
2022/01/01 02:10:41;;;;;;;22.73;9.57;;;;;;;14.38;100.00;101991.63;5040504;28;20052;-73
2022/01/01 02:13:16;;;;;;;28.73;11.15;;;;;;;14.47;100.00;101989.28;5031847;28;20073;-74
2022/01/01 02:18:19;;;;;;;34.15;12.07;;;;;;;14.47;100.00;101989.28;5042335;28;20136;-71
2022/01/01 02:20:49;;;;;;;15.35;5.43;;;;;;;14.41;100.00;101982.50;5036150;28;20084;-72
2022/01/01 02:23:18;;;;;;;27.27;10.02;;;;;;;14.41;100.00;101992.84;5040124;28;20433;-71
2022/01/01 02:25:48;;;;;;;30.15;7.88;;;;;;;14.47;100.00;101989.28;5041817;28;20063;-72
2022/01/01 02:28:14;;;;;;;30.08;9.95;;;;;;;14.44;100.00;101990.06;5030542;28;20063;-72
2022/01/01 02:30:41;;;;;;;18.50;6.03;;;;;;;14.36;100.00;101990.44;5039956;28;20128;-75
2022/01/01 02:33:08;;;;;;;18.40;6.85;;;;;;;14.33;100.00;101989.25;5038058;28;20056;-72
2022/01/01 02:35:34;;;;;;;23.65;7.15;;;;;;;14.33;100.00;101980.06;5037045;28;20132;-71
2022/01/01 02:38:01;;;;;;;11.35;4.05;;;;;;;14.38;100.00;101988.06;5027848;28;20127;-71
2022/01/01 02:40:27;;;;;;;19.38;7.75;;;;;;;14.29;100.00;101988.44;5027043;28;20319;-71
2022/01/01 02:42:55;;;;;;;19.38;7.40;;;;;;;14.40;100.00;101978.13;5027178;28;20067;-70
2022/01/01 02:45:21;;;;;;;14.00;4.53;;;;;;;14.40;100.00;101963.41;5031104;28;20045;-71
2022/01/01 02:47:49;;;;;;;19.13;7.60;;;;;;;14.34;100.00;101970.56;5038587;28;20160;-71
2022/01/01 02:50:19;;;;;;;17.73;5.90;;;;;;;14.42;100.00;101975.75;5029865;28;20045;-72
2022/01/01 02:52:47;;;;;;;22.58;6.60;;;;;;;14.43;100.00;101976.53;5028118;28;20133;-71
2022/01/01 02:55:14;;;;;;;38.72;7.00;;;;;;;14.38;100.00;101983.28;5028732;28;20839;-71
2022/01/01 02:57:40;;;;;;;26.05;10.82;;;;;;;14.48;100.00;101990.09;5038055;28;20144;-69
2022/01/01 03:00:07;;;;;;;17.92;5.78;;;;;;;14.38;100.00;101988.84;5037806;28;20061;-72
2022/01/01 03:02:34;;;;;;;10.23;4.38;;;;;;;14.43;100.00;101994.06;5031471;28;20072;-71
2022/01/01 03:05:00;;;;;;;24.98;9.68;;;;;;;14.51;100.00;101990.09;5030970;28;20041;-70
2022/01/01 03:07:27;;;;;;;28.30;9.25;;;;;;;14.50;100.00;101991.28;5028412;28;20075;-72
2022/01/01 03:09:53;;;;;;;27.52;7.47;;;;;;;14.47;100.00;102000.44;5027508;28;20045;-71
2022/01/01 03:12:20;;;;;;;27.08;5.57;;;;;;;14.44;100.00;102009.56;5026174;28;20087;-73
2022/01/01 03:14:46;;;;;;;20.48;6.47;;;;;;;14.46;100.00;101998.84;5026837;28;20062;-71
2022/01/01 03:17:13;;;;;;;12.13;4.43;;;;;;;14.48;100.00;102020.72;5031349;28;20050;-73
2022/01/01 03:19:39;;;;;;;34.08;10.73;;;;;;;14.53;100.00;102010.00;5033399;28;20132;-73
2022/01/01 03:22:06;;;;;;;21.08;7.10;;;;;;;14.43;100.00;102021.09;5046252;28;20141;-72
2022/01/01 03:24:32;;;;;;;17.45;6.60;;;;;;;14.43;100.00;102007.97;5030570;28;20130;-71
2022/01/01 03:27:01;;;;;;;13.60;4.38;;;;;;;14.47;100.00;102006.00;5026371;28;20064;-72
2022/01/01 03:29:30;;;;;;;11.98;5.00;;;;;;;14.46;100.00;102004.41;5036374;28;20506;-71
2022/01/01 03:31:57;;;;;;;12.27;4.57;;;;;;;14.48;100.00;102007.59;5030410;28;20061;-71
2022/01/01 03:34:24;;;;;;;21.90;9.02;;;;;;;14.51;100.00;102003.22;5046007;28;20044;-71
2022/01/01 03:36:51;;;;;;;18.10;6.43;;;;;;;14.50;100.00;102005.22;5059839;28;20401;-71
2022/01/01 03:39:17;;;;;;;15.23;5.55;;;;;;;14.40;100.00;101994.84;5029067;28;20080;-71
2022/01/01 03:41:44;;;;;;;21.38;8.27;;;;;;;14.36;100.00;102005.16;5026690;28;20164;-72
2022/01/01 03:44:10;;;;;;;25.50;9.43;;;;;;;14.45;100.00;102005.56;5033577;28;20061;-73
2022/01/01 03:46:37;;;;;;;13.77;6.28;;;;;;;14.42;100.00;102006.38;5047939;28;20136;-71
2022/01/01 03:49:03;;;;;;;28.00;11.23;;;;;;;14.54;100.00;102000.44;5035951;28;20049;-70
2022/01/01 03:51:30;;;;;;;17.08;6.28;;;;;;;14.46;100.00;101998.84;5029829;28;20064;-71
2022/01/01 03:53:56;;;;;;;28.00;10.63;;;;;;;14.51;100.00;101989.31;5033148;28;20508;-72
2022/01/01 03:56:23;;;;;;;19.65;7.20;;;;;;;14.44;100.00;101990.06;5034909;28;20084;-71
2022/01/01 03:58:49;;;;;;;16.60;6.45;;;;;;;14.48;100.00;101988.09;5045826;28;20056;-71
2022/01/01 04:01:16;;;;;;;15.07;7.18;;;;;;;14.42;100.00;101972.97;5030183;28;20364;-71
2022/01/01 04:03:43;;;;;;;19.02;6.75;;;;;;;14.46;100.00;101972.97;5040754;28;20494;-73
2022/01/01 04:06:10;;;;;;;26.92;11.05;;;;;;;14.50;100.00;101971.78;5032821;28;20056;-71
2022/01/01 04:08:36;;;;;;;19.63;6.43;;;;;;;14.46;100.00;101972.97;5035379;28;20057;-70
2022/01/01 04:11:03;;;;;;;15.88;4.05;;;;;;;14.40;100.00;101966.97;5042489;28;20970;-70
2022/01/01 04:13:30;;;;;;;20.80;6.70;;;;;;;14.39;100.00;101954.25;5029971;28;20053;-73
2022/01/01 04:15:56;;;;;;;21.60;7.63;;;;;;;14.49;100.00;101952.69;5032938;28;20070;-71
2022/01/01 04:18:29;;;;;;;29.02;10.52;;;;;;;14.53;100.00;101956.28;5048534;28;20128;-71
2022/01/01 04:20:56;;;;;;;9.30;3.22;;;;;;;14.44;100.00;101953.88;5031696;28;20804;-71
2022/01/01 04:23:23;;;;;;;30.98;11.45;;;;;;;14.53;100.00;101953.50;5032763;28;20389;-71
2022/01/01 04:25:50;;;;;;;29.27;11.73;;;;;;;14.47;100.00;101952.28;5041908;28;20057;-72
2022/01/01 04:28:17;;;;;;;24.25;10.50;;;;;;;14.44;100.00;101962.22;5031693;28;20059;-70
2022/01/01 04:30:43;;;;;;;22.42;7.70;;;;;;;14.43;100.00;101965.41;5030941;28;20059;-70
2022/01/01 04:33:10;;;;;;;17.67;6.60;;;;;;;14.36;100.00;101962.59;5045050;28;20055;-71
2022/01/01 04:35:36;;;;;;;21.98;8.45;;;;;;;14.36;100.00;101970.94;5045948;28;20521;-71
2022/01/01 04:38:03;;;;;;;10.90;4.20;;;;;;;14.32;100.00;101975.72;5037793;28;20525;-72
2022/01/01 04:40:30;;;;;;;27.20;8.10;;;;;;;14.36;100.00;101973.72;5033629;28;20199;-71
2022/01/01 04:42:56;;;;;;;25.77;8.27;;;;;;;14.34;100.00;101978.91;5036998;28;20579;-71
2022/01/01 04:45:23;;;;;;;23.83;9.68;;;;;;;14.34;100.00;101976.13;5041312;28;20045;-72
2022/01/01 04:47:51;;;;;;;31.95;11.45;;;;;;;14.33;100.00;101974.50;5030203;28;20797;-73
2022/01/01 04:50:17;;;;;;;18.67;5.95;;;;;;;14.26;100.00;101974.50;5038405;28;20128;-72
2022/01/01 04:52:45;;;;;;;21.17;6.68;;;;;;;14.27;100.00;101964.94;5029219;28;20045;-71
2022/01/01 04:55:11;;;;;;;31.10;11.25;;;;;;;14.30;100.00;101961.38;5029731;28;20469;-70
2022/01/01 04:57:40;;;;;;;30.92;10.48;;;;;;;14.25;100.00;101959.78;5028805;28;20390;-71
2022/01/01 05:00:06;;;;;;;34.05;11.68;;;;;;;14.27;100.00;101974.09;5036256;28;20403;-71
2022/01/01 05:02:33;;;;;;;31.27;12.07;;;;;;;14.27;100.00;101976.88;5035978;28;20080;-70
2022/01/01 05:05:00;;;;;;;22.38;7.88;;;;;;;14.20;100.00;101993.53;5041611;28;20423;-71
2022/01/01 05:07:26;;;;;;;29.27;10.95;;;;;;;14.29;100.00;101982.88;5029716;28;20083;-71
2022/01/01 05:09:53;;;;;;;26.45;8.90;;;;;;;14.27;100.00;101990.00;5047997;28;20053;-71
2022/01/01 05:12:19;;;;;;;29.20;10.68;;;;;;;14.33;100.00;101999.56;5039689;28;20110;-70
2022/01/01 05:14:46;;;;;;;24.35;8.45;;;;;;;14.27;100.00;101998.34;5044774;28;20045;-72
2022/01/01 05:17:14;;;;;;;29.50;11.80;;;;;;;14.31;100.00;101996.41;5038930;28;20053;-71
2022/01/01 05:19:40;;;;;;;9.73;3.80;;;;;;;14.22;100.00;102007.06;5041337;28;20049;-70
2022/01/01 05:22:07;;;;;;;23.80;9.73;;;;;;;14.31;100.00;101999.19;5047206;28;20084;-70
2022/01/01 05:24:33;;;;;;;15.63;4.75;;;;;;;14.23;100.00;102006.69;5041292;28;20096;-70
2022/01/01 05:27:02;;;;;;;22.75;8.73;;;;;;;14.29;100.00;102007.94;5030436;28;20065;-71
2022/01/01 05:29:28;;;;;;;28.35;9.38;;;;;;;14.30;100.00;102017.06;5036299;28;20121;-71
2022/01/01 05:31:55;;;;;;;22.80;9.88;;;;;;;14.30;100.00;102023.44;5028738;28;20053;-71
2022/01/01 05:34:21;;;;;;;5.88;2.58;;;;;;;14.28;100.00;102023.00;5047053;28;20057;-71
2022/01/01 05:36:48;;;;;;;11.07;4.68;;;;;;;14.32;100.00;102025.81;5034062;28;20085;-72
2022/01/01 05:39:15;;;;;;;15.98;5.75;;;;;;;14.25;100.00;102020.22;5031301;28;20513;-71
2022/01/01 05:41:41;;;;;;;20.92;6.82;;;;;;;14.32;100.00;102031.41;5044342;28;20139;-71
2022/01/01 05:44:08;;;;;;;22.10;8.10;;;;;;;14.33;100.00;102022.66;5037794;28;20136;-72
2022/01/01 05:46:35;;;;;;;14.07;3.70;;;;;;;14.36;100.00;102021.06;5033136;28;20056;-71
2022/01/01 05:49:02;;;;;;;15.13;4.15;;;;;;;14.36;100.00;102018.28;5037459;28;20052;-71
2022/01/01 05:51:28;;;;;;;24.38;8.13;;;;;;;14.44;100.00;102006.78;5027655;28;20045;-71
2022/01/01 05:53:55;;;;;;;7.85;2.90;;;;;;;14.33;100.00;102013.50;5033770;28;20057;-71
2022/01/01 05:56:21;;;;;;;8.88;2.67;;;;;;;14.38;100.00;102007.56;5028993;28;20049;-72
2022/01/01 05:58:48;;;;;;;8.10;3.05;;;;;;;14.36;100.00;102010.75;5030095;28;20053;-71
2022/01/01 06:01:14;;;;;;;22.35;7.22;;;;;;;14.37;100.00;102008.72;5039532;28;20509;-71
2022/01/01 06:03:41;;;;;;;22.52;7.68;;;;;;;14.41;100.00;102018.69;5029676;28;20054;-72
2022/01/01 06:06:07;;;;;;;12.38;3.55;;;;;;;14.31;100.00;102021.47;5040315;28;20056;-72
2022/01/01 06:08:54;;;;;;;13.80;4.05;;;;;;;14.35;100.00;102020.25;5040123;28;20045;-73
2022/01/01 06:11:20;;;;;;;21.98;7.55;;;;;;;14.44;100.00;102019.91;5033659;28;20144;-71
2022/01/01 06:13:47;;;;;;;20.25;6.35;;;;;;;14.41;100.00;102010.34;5040794;28;20075;-71
2022/01/01 06:16:14;;;;;;;13.52;4.47;;;;;;;14.35;100.00;102009.13;5036749;28;20128;-71
2022/01/01 06:18:40;;;;;;;17.80;6.07;;;;;;;14.38;100.00;102011.13;5035820;28;20049;-73
2022/01/01 06:21:07;;;;;;;27.20;6.75;;;;;;;14.40;100.00;102008.75;5027958;28;20410;-70
2022/01/01 06:23:37;;;;;;;19.65;4.90;;;;;;;14.37;100.00;102011.50;5039516;28;20402;-70
2022/01/01 06:26:04;;;;;;;21.70;7.57;;;;;;;14.42;100.00;102014.75;5038876;28;20053;-71
2022/01/01 06:28:31;;;;;;;15.82;5.10;;;;;;;14.39;100.00;102011.94;5033306;28;20083;-71
2022/01/01 06:30:57;;;;;;;13.10;4.07;;;;;;;14.37;100.00;102023.47;5033414;28;20057;-71
2022/01/01 06:33:24;;;;;;;18.33;5.18;;;;;;;14.36;100.00;102021.88;5044536;28;20056;-72
2022/01/01 06:35:50;;;;;;;8.40;3.45;;;;;;;14.34;100.00;102021.44;5043500;28;20045;-72
2022/01/01 06:38:17;;;;;;;14.57;5.13;;;;;;;14.35;100.00;102020.25;5037470;28;20407;-71
2022/01/01 06:40:44;;;;;;;18.60;6.72;;;;;;;14.40;100.00;102019.91;5038158;28;20041;-71
2022/01/01 06:43:14;;;;;;;22.30;6.00;;;;;;;14.35;100.00;102016.69;5032595;28;20042;-71
2022/01/01 06:45:42;;;;;;;9.32;2.67;;;;;;;14.32;100.00;102026.63;5034705;28;20083;-70
2022/01/01 06:48:09;;;;;;;6.53;2.85;;;;;;;14.30;100.00;102033.75;5035723;28;20128;-71
2022/01/01 06:50:37;;;;;;;8.93;2.97;;;;;;;14.35;100.00;102036.19;5043224;28;20057;-71
2022/01/01 06:53:07;;;;;;;25.40;7.15;;;;;;;14.41;100.00;102040.19;5032001;28;20140;-73
2022/01/01 06:55:34;;;;;;;13.23;4.93;;;;;;;14.31;100.00;102029.81;5032883;28;20851;-73
2022/01/01 06:58:00;;;;;;;17.90;6.10;;;;;;;14.37;100.00;102040.16;5028005;28;20136;-70
2022/01/01 07:00:27;;;;;;;12.93;4.25;;;;;;;14.30;100.00;102040.13;5029401;28;20140;-70
2022/01/01 07:02:54;;;;;;;15.80;4.80;;;;;;;14.37;100.00;102036.56;5037603;28;20058;-72
2022/01/01 07:05:20;;;;;;;23.63;6.35;;;;;;;14.36;100.00;102029.41;5036121;28;20156;-70
2022/01/01 07:07:47;;;;;;;5.10;1.33;;;;;;;14.31;100.00;102024.25;5034244;28;20049;-72
2022/01/01 07:10:14;;;;;;;15.05;4.80;;;;;;;14.38;100.00;102027.84;5035409;28;20124;-71
2022/01/01 07:12:42;;;;;;;12.73;4.05;;;;;;;14.32;100.00;102009.13;5029717;28;20387;-72
2022/01/01 07:15:09;;;;;;;9.50;3.42;;;;;;;14.34;100.00;102021.44;5029690;28;20046;-74
2022/01/01 07:17:36;;;;;;;18.40;5.90;;;;;;;14.41;100.00;102029.84;5033556;28;20057;-70
2022/01/01 07:20:04;;;;;;;21.05;5.28;;;;;;;14.41;100.00;102034.63;5028492;28;20469;-70
2022/01/01 07:22:31;;;;;;;8.32;2.40;;;;;;;14.29;100.00;102041.34;5033022;28;20059;-70
2022/01/01 07:25:03;;;;;;;8.20;2.05;;;;;;;14.36;100.00;102044.16;5042244;28;20049;-70
2022/01/01 07:27:29;;;;;;;19.42;4.35;;;;;;;14.34;100.00;102043.72;5043192;28;20131;-70
2022/01/01 07:29:56;;;;;;;15.32;4.70;;;;;;;14.41;100.00;102045.75;5045754;28;20143;-70
2022/01/01 07:32:24;;;;;;;5.63;2.05;;;;;;;14.33;100.00;102047.72;5033265;28;20525;-70
2022/01/01 07:34:51;;;;;;;12.57;4.00;;;;;;;14.42;100.00;102058.50;5044579;28;20426;-70
2022/01/01 07:37:17;;;;;;;16.38;5.10;;;;;;;14.40;100.00;102056.09;5031332;28;20057;-70
2022/01/01 07:39:44;;;;;;;17.88;4.65;;;;;;;14.41;100.00;102052.13;5042577;28;20056;-71
2022/01/01 07:42:12;;;;;;;12.85;4.18;;;;;;;14.41;100.00;102043.75;5038102;28;20057;-70
2022/01/01 07:44:41;;;;;;;12.60;2.90;;;;;;;14.45;100.00;102049.34;5041808;28;20049;-70
2022/01/01 07:47:08;;;;;;;19.58;5.10;;;;;;;14.46;100.00;102056.50;5046975;28;20037;-71
2022/01/01 07:49:35;;;;;;;8.13;3.15;;;;;;;14.42;100.00;102061.28;5033162;28;20140;-70
2022/01/01 07:52:01;;;;;;;7.65;2.97;;;;;;;14.35;100.00;102064.81;5037433;28;20140;-72
2022/01/01 07:54:28;;;;;;;18.48;4.18;;;;;;;14.48;100.00;102068.84;5034443;28;20049;-71
2022/01/01 07:56:56;;;;;;;10.40;2.92;;;;;;;14.40;100.00;102066.44;5036573;28;20061;-72
2022/01/01 07:59:22;;;;;;;16.08;4.72;;;;;;;14.47;100.00;102058.91;5048629;28;20052;-70
2022/01/01 08:01:49;;;;;;;15.20;3.97;;;;;;;14.53;100.00;102065.72;5028714;28;20528;-72
2022/01/01 08:04:16;;;;;;;16.00;4.15;;;;;;;14.48;100.00;102073.66;5032298;28;20100;-70
2022/01/01 08:06:42;;;;;;;6.13;2.50;;;;;;;14.51;100.00;102070.09;5031362;28;20044;-71
2022/01/01 08:09:09;;;;;;;14.20;3.53;;;;;;;14.52;100.00;102071.66;5033626;28;20132;-72
2022/01/01 08:11:35;;;;;;;14.82;4.07;;;;;;;14.51;100.00;102070.09;5035123;28;20076;-70
2022/01/01 08:14:02;;;;;;;8.32;4.25;;;;;;;14.50;100.00;102065.69;5043679;28;20437;-70
2022/01/01 08:16:28;;;;;;;18.17;4.63;;;;;;;14.53;100.00;102071.28;5038580;28;20124;-71
2022/01/01 08:18:55;;;;;;;15.40;4.55;;;;;;;14.58;100.00;102076.47;5043982;28;20060;-70
2022/01/01 08:21:22;;;;;;;10.75;4.05;;;;;;;14.55;100.00;102077.22;5031163;28;20056;-68
2022/01/01 08:23:48;;;;;;;11.73;3.78;;;;;;;14.53;100.00;102076.84;5041603;28;20053;-69
2022/01/01 08:26:15;;;;;;;6.53;2.65;;;;;;;14.53;100.00;102088.00;5036031;28;20141;-68
2022/01/01 08:28:41;;;;;;;3.30;2.05;;;;;;;14.57;100.00;102090.78;5036281;28;20049;-71
2022/01/01 08:31:08;;;;;;;18.25;4.90;;;;;;;14.66;100.00;102085.66;5036255;28;20061;-70
2022/01/01 08:33:35;;;;;;;11.30;2.65;;;;;;;14.60;100.00;102093.59;5036834;28;20610;-71
2022/01/01 08:36:03;;;;;;;14.18;4.18;;;;;;;14.58;100.00;102090.38;5040610;28;20464;-71
2022/01/01 08:38:31;;;;;;;9.07;3.05;;;;;;;14.61;100.00;102091.56;5034580;28;20053;-71
2022/01/01 08:40:59;;;;;;;22.67;4.50;;;;;;;14.69;100.00;102093.22;5033453;28;20529;-71
2022/01/01 08:43:26;;;;;;;4.90;2.30;;;;;;;14.59;100.00;102097.56;5032351;28;20068;-70
2022/01/01 08:45:53;;;;;;;11.60;2.83;;;;;;;14.58;100.00;102097.97;5035619;28;20520;-71
2022/01/01 08:48:20;;;;;;;3.05;1.52;;;;;;;14.59;100.00;102097.56;5045684;28;20178;-71
2022/01/01 08:50:47;;;;;;;4.70;2.03;;;;;;;14.61;100.00;102095.19;5039597;28;20139;-70
2022/01/01 08:53:15;;;;;;;7.15;2.88;;;;;;;14.59;100.00;102092.00;5033726;28;20056;-70
2022/01/01 08:55:41;;;;;;;16.98;4.07;;;;;;;14.67;100.00;102099.19;5046507;28;20053;-72
2022/01/01 08:58:08;;;;;;;5.03;2.30;;;;;;;14.59;100.00;102092.00;5037085;28;20049;-72
2022/01/01 09:00:52;;;;;;;11.63;3.17;;;;;;;14.67;100.00;102099.19;5034359;28;20127;-72
2022/01/01 09:03:19;;;;;;;3.08;1.38;;;;;;;14.65;100.00;102089.63;5033248;28;20063;-71
2022/01/01 09:05:47;;;;;;;17.80;4.38;;;;;;;14.74;100.00;102085.28;5029442;28;20052;-72
2022/01/01 09:08:33;;;;;;;11.10;2.78;;;;;;;14.66;100.00;102085.66;5039241;28;20049;-71
2022/01/01 09:11:00;;;;;;;10.48;3.30;;;;;;;14.90;100.00;102099.69;5033376;28;20053;-71
2022/01/01 09:13:26;;;;;;;13.02;3.15;;;;;;;14.93;100.00;102093.31;5030776;28;20135;-71
2022/01/01 09:15:53;;;;;;;14.18;3.72;;;;;;;15.02;100.00;102096.50;5032562;28;20045;-72
2022/01/01 09:18:20;;;;;;;14.73;3.35;;;;;;;15.15;99.16;102091.34;5029619;28;20502;-73
2022/01/01 09:20:48;;;;;;;3.35;1.90;;;;;;;15.15;97.87;102085.78;5030154;28;20149;-73
2022/01/01 09:23:16;;;;;;;15.02;3.90;;;;;;;15.31;97.67;102084.22;5031757;28;20053;-71
2022/01/01 09:25:42;;;;;;;6.80;2.00;;;;;;;15.26;96.13;102086.63;5030406;28;20042;-72
2022/01/01 09:28:09;;;;;;;23.55;4.47;;;;;;;15.29;96.11;102085.81;5036729;28;20135;-71
2022/01/01 09:30:35;;;;;;;7.55;2.20;;;;;;;15.17;95.46;102094.56;5035364;28;20521;-71
2022/01/01 09:33:03;;;;;;;4.65;1.73;;;;;;;15.26;95.50;102087.38;5043316;28;20053;-72
2022/01/01 09:35:29;;;;;;;12.27;3.85;;;;;;;15.40;95.15;102086.66;5038292;28;20122;-74
2022/01/01 09:37:56;;;;;;;12.40;3.53;;;;;;;15.40;94.47;102093.00;5030858;28;20118;-73
2022/01/01 09:40:24;;;;;;;11.75;4.18;;;;;;;15.48;94.45;102090.25;5027512;28;20084;-74
2022/01/01 09:42:52;;;;;;;7.47;2.67;;;;;;;15.39;93.26;102079.50;5033393;28;20076;-69
2022/01/01 09:45:20;;;;;;;10.40;2.75;;;;;;;15.44;93.12;102093.03;5029313;28;20505;-73
2022/01/01 09:47:48;;;;;;;11.95;3.60;;;;;;;15.40;93.39;102084.63;5027251;28;20049;-71
2022/01/01 09:50:15;;;;;;;16.73;3.55;;;;;;;15.34;92.95;102089.00;5029503;28;20049;-72
2022/01/01 09:52:42;;;;;;;6.97;2.20;;;;;;;15.24;93.49;102092.59;5026296;28;20049;-70
2022/01/01 09:55:09;;;;;;;7.20;2.22;;;;;;;15.30;93.23;102093.75;5035348;28;20143;-72
2022/01/01 09:57:37;;;;;;;15.32;3.05;;;;;;;15.34;92.99;102097.38;5034877;28;20049;-72
2022/01/01 10:00:05;;;;;;;14.95;2.95;;;;;;;15.31;93.25;102100.97;5027485;28;20053;-71
2022/01/01 10:02:32;;;;;;;5.65;1.98;;;;;;;15.32;92.83;102108.13;5027451;28;20148;-72
2022/01/01 10:05:04;;;;;;;17.00;3.85;;;;;;;15.39;92.99;102104.59;5028048;28;20160;-72
2022/01/01 10:07:31;;;;;;;11.85;3.95;;;;;;;15.43;92.79;102103.38;5030125;28;20140;-72
2022/01/01 10:10:16;;;;;;;12.30;3.05;;;;;;;15.44;92.26;102104.19;5028863;28;20057;-75
2022/01/01 10:12:43;;;;;;;8.02;1.60;;;;;;;15.41;91.82;102102.19;5026133;28;20139;-71
2022/01/01 10:15:11;;;;;;;13.70;4.05;;;;;;;15.44;92.50;102093.84;5028529;28;20052;-70
2022/01/01 10:17:38;;;;;;;2.80;1.30;;;;;;;15.36;91.84;102086.63;5027610;28;20071;-71
2022/01/01 10:20:05;;;;;;;6.55;1.73;;;;;;;15.33;91.75;102092.97;5035853;28;20513;-73
2022/01/01 10:22:32;;;;;;;13.55;2.50;;;;;;;15.35;92.06;102087.00;5034377;28;20076;-71
2022/01/01 10:28:04;;;;;;;4.32;1.85;;;;;;;15.40;91.36;102083.88;5035343;28;20049;-72
2022/01/01 10:30:40;;;;;;;6.95;2.42;;;;;;;15.38;91.82;102089.84;5029719;28;20456;-71
2022/01/01 10:33:07;;;;;;;7.10;2.95;;;;;;;15.46;91.13;102085.84;5027307;28;20060;-71
2022/01/01 10:35:43;;;;;;;13.73;2.45;;;;;;;15.52;91.45;102089.84;5027975;28;20149;-73
2022/01/01 10:38:22;;;;;;;15.45;3.92;;;;;;;15.60;91.05;102076.69;5030445;28;20049;-72
2022/01/01 10:40:54;;;;;;;2.90;1.60;;;;;;;15.56;89.54;102075.09;5024812;28;20084;-72
2022/01/01 10:43:23;;;;;;;9.57;3.10;;;;;;;15.68;89.13;102074.69;5026026;28;20053;-72
2022/01/01 10:45:50;;;;;;;8.15;2.03;;;;;;;15.77;89.07;102077.88;5030297;28;20180;-71
2022/01/01 10:48:31;;;;;;;4.75;1.58;;;;;;;15.78;88.28;102069.09;5033280;28;20045;-71
2022/01/01 10:50:59;;;;;;;6.22;1.90;;;;;;;15.77;88.30;102070.31;5025215;28;20045;-75
2022/01/01 10:53:27;;;;;;;7.82;2.60;;;;;;;15.82;87.89;102058.72;5022600;28;20077;-71
2022/01/01 10:55:59;;;;;;;15.00;3.78;;;;;;;15.96;88.12;102057.94;5019800;28;20060;-75
2022/01/01 10:58:35;;;;;;;9.23;1.35;;;;;;;15.86;87.45;102055.94;5019003;28;20045;-74
2022/01/01 11:01:03;;;;;;;;;;;;;;;15.90;87.88;102048.34;5021279;28;20053;-73
2022/01/01 11:03:36;;;;;;;3.28;1.52;;;;;;;15.81;87.47;102045.97;5028549;28;19979;-71
2022/01/01 11:06:03;;;;;;;9.93;1.83;;;;;;;15.92;87.09;102041.16;5019076;28;20057;-71
2022/01/01 11:08:31;;;;;;;8.05;1.67;;;;;;;15.88;87.13;102025.63;5017151;28;20053;-74
2022/01/01 11:10:58;;;;;;;15.43;2.58;;;;;;;15.94;86.76;102026.81;5019233;28;20143;-72
2022/01/01 11:13:26;;;;;;;2.70;1.13;;;;;;;15.92;86.44;102032.78;5016951;28;20049;-72
2022/01/01 11:15:53;;;;;;;12.93;2.53;;;;;;;16.05;86.36;102022.00;5018344;28;20048;-71
2022/01/01 11:18:21;;;;;;;8.95;2.42;;;;;;;16.09;86.30;102012.41;5038465;28;20057;-73
2022/01/01 11:20:49;;;;;;;3.22;1.02;;;;;;;15.97;85.90;102015.66;5025361;28;20063;-71